createdAt,value
2023-07-02T00:00:09.183Z,3.33
2023-07-02T00:02:37.542Z,3.73
2023-07-02T00:05:04.658Z,3.10
2023-07-02T00:07:31.308Z,3.43
2023-07-02T00:09:58.193Z,3.67
2023-07-02T00:12:24.897Z,3.80
2023-07-02T00:14:54.291Z,3.57
2023-07-02T00:17:21.835Z,3.53
2023-07-02T00:19:53.237Z,3.67
2023-07-02T00:22:20.584Z,4.00
2023-07-02T00:24:47.319Z,3.77
2023-07-02T00:27:14.037Z,3.60
2023-07-02T00:29:40.633Z,3.40
2023-07-02T00:32:07.409Z,4.57
2023-07-02T00:34:34.005Z,4.00
2023-07-02T00:37:00.628Z,4.43
2023-07-02T00:39:27.267Z,3.60
2023-07-02T00:41:53.881Z,4.10
2023-07-02T00:44:21.963Z,4.53
2023-07-02T00:46:51.772Z,4.40
2023-07-02T00:49:18.516Z,4.00
2023-07-02T00:51:45.121Z,4.00
2023-07-02T00:54:11.735Z,4.70
2023-07-02T00:56:38.400Z,5.10
2023-07-02T00:59:05.038Z,4.20
2023-07-02T01:01:34.711Z,4.43
2023-07-02T01:04:04.079Z,4.80
2023-07-02T01:06:35.796Z,4.00
2023-07-02T01:09:06.777Z,3.57
2023-07-02T01:11:47.839Z,4.10
2023-07-02T01:14:35.100Z,3.83
2023-07-02T01:17:04.976Z,3.50
2023-07-02T01:19:35.017Z,4.17
2023-07-02T01:22:02.970Z,3.73
2023-07-02T01:24:29.800Z,3.77
2023-07-02T01:26:57.495Z,4.23
2023-07-02T01:29:24.135Z,4.23
2023-07-02T01:31:50.823Z,4.10
2023-07-02T01:34:17.474Z,4.00
2023-07-02T01:36:44.089Z,4.40
2023-07-02T01:39:10.720Z,4.13
2023-07-02T01:41:54.632Z,4.40
2023-07-02T01:44:22.894Z,4.67
2023-07-02T01:46:52.539Z,4.30
2023-07-02T01:49:20.638Z,4.90
2023-07-02T01:51:53.595Z,5.10
2023-07-02T01:54:21.211Z,5.03
2023-07-02T01:56:48.181Z,5.20
2023-07-02T01:59:15.595Z,5.03
2023-07-02T02:01:42.632Z,5.10
2023-07-02T02:04:11.068Z,6.20
2023-07-02T02:06:38.645Z,5.80
2023-07-02T02:09:06.325Z,5.60
2023-07-02T02:11:34.440Z,5.73
2023-07-02T02:14:02.555Z,6.90
2023-07-02T02:16:30.018Z,6.87
2023-07-02T02:18:56.800Z,6.23
2023-07-02T02:21:23.788Z,6.57
2023-07-02T02:23:50.427Z,6.97
2023-07-02T02:26:17.176Z,7.07
2023-07-02T02:28:44.288Z,6.90
2023-07-02T02:31:11.106Z,7.80
2023-07-02T02:33:37.862Z,7.20
2023-07-02T02:36:04.736Z,7.17
2023-07-02T02:38:31.494Z,6.87
2023-07-02T02:40:58.145Z,7.70
2023-07-02T02:43:25.008Z,7.33
2023-07-02T02:45:51.619Z,8.20
2023-07-02T02:48:18.254Z,8.10
2023-07-02T02:50:44.887Z,7.90
2023-07-02T02:53:11.961Z,9.47
2023-07-02T02:55:38.580Z,8.00
2023-07-02T02:58:05.337Z,8.47
2023-07-02T03:00:32.029Z,8.83
2023-07-02T03:02:59.979Z,8.77
2023-07-02T03:05:27.338Z,9.33
2023-07-02T03:07:54.211Z,9.27
2023-07-02T03:10:21.014Z,9.10
2023-07-02T03:12:48.909Z,9.67
2023-07-02T03:15:15.687Z,10.30
2023-07-02T03:17:42.342Z,9.43
2023-07-02T03:20:09.549Z,8.90
2023-07-02T03:22:36.149Z,10.03
2023-07-02T03:25:02.998Z,9.83
2023-07-02T03:27:29.665Z,10.03
2023-07-02T03:29:56.926Z,10.37
2023-07-02T03:32:23.664Z,10.37
2023-07-02T03:34:50.334Z,10.43
2023-07-02T03:37:16.965Z,10.13
2023-07-02T03:39:43.586Z,10.83
2023-07-02T03:42:10.231Z,10.90
2023-07-02T03:44:36.839Z,10.57
2023-07-02T03:47:03.524Z,11.30
2023-07-02T03:49:32.623Z,11.10
2023-07-02T03:51:59.293Z,11.20
2023-07-02T03:54:25.899Z,10.90
2023-07-02T03:56:52.525Z,11.33
2023-07-02T03:59:20.397Z,11.10
2023-07-02T04:01:47.018Z,11.37
2023-07-02T04:04:13.867Z,11.83
2023-07-02T04:06:40.511Z,12.57
2023-07-02T04:09:07.108Z,11.70
2023-07-02T04:11:33.861Z,11.80
2023-07-02T04:14:00.446Z,12.43
2023-07-02T04:16:27.111Z,12.27
2023-07-02T04:18:53.722Z,12.97
2023-07-02T04:21:20.309Z,13.23
2023-07-02T04:23:46.913Z,12.73
2023-07-02T04:26:49.935Z,12.63
2023-07-02T04:29:00.369Z,13.20
2023-07-02T04:31:27.492Z,13.87
2023-07-02T04:33:54.163Z,13.47
2023-07-02T04:36:20.908Z,14.47
2023-07-02T04:38:47.576Z,14.57
2023-07-02T04:41:14.188Z,13.43
2023-07-02T04:43:40.816Z,13.93
2023-07-02T04:46:08.975Z,14.27
2023-07-02T04:48:35.979Z,13.87
2023-07-02T04:51:02.626Z,13.33
2023-07-02T04:53:29.293Z,13.83
2023-07-02T04:55:57.972Z,14.33
2023-07-02T04:58:24.699Z,15.60
2023-07-02T05:00:51.706Z,13.93
2023-07-02T05:03:18.488Z,15.03
2023-07-02T05:05:45.203Z,13.13
2023-07-02T05:08:11.915Z,15.27
2023-07-02T05:10:38.553Z,14.23
2023-07-02T05:13:05.136Z,14.93
2023-07-02T05:15:31.757Z,14.70
2023-07-02T05:17:58.548Z,14.80
2023-07-02T05:20:25.369Z,14.13
2023-07-02T05:22:51.994Z,15.23
2023-07-02T05:25:18.712Z,15.30
2023-07-02T05:27:45.319Z,16.00
2023-07-02T05:30:12.487Z,16.30
2023-07-02T05:32:40.733Z,16.23
2023-07-02T05:35:07.707Z,14.60
2023-07-02T05:37:34.408Z,16.27
2023-07-02T05:40:01.005Z,15.40
2023-07-02T05:42:27.601Z,16.87
2023-07-02T05:44:54.200Z,15.20
2023-07-02T05:47:20.828Z,15.57
2023-07-02T05:49:47.652Z,15.53
2023-07-02T05:52:14.356Z,15.13
2023-07-02T05:54:42.401Z,15.43
2023-07-02T05:57:09.193Z,15.53
2023-07-02T05:59:36.028Z,15.27
2023-07-02T06:02:02.720Z,15.47
2023-07-02T06:04:29.478Z,14.60
2023-07-02T06:06:56.216Z,13.97
2023-07-02T06:09:22.911Z,15.30
2023-07-02T06:11:49.617Z,14.53
2023-07-02T06:14:16.305Z,14.30
2023-07-02T06:16:43.648Z,13.20
2023-07-02T06:19:10.634Z,13.47
2023-07-02T06:21:38.074Z,13.50
2023-07-02T06:24:05.146Z,12.50
2023-07-02T06:26:33.515Z,12.83
2023-07-02T06:29:00.436Z,11.77
2023-07-02T06:31:27.638Z,13.63
2023-07-02T06:33:54.520Z,13.27
2023-07-02T06:36:21.396Z,12.83
2023-07-02T06:38:48.080Z,12.73
2023-07-02T06:41:15.602Z,12.13
2023-07-02T06:43:45.445Z,11.97
2023-07-02T06:46:13.280Z,12.60
2023-07-02T06:48:40.151Z,12.20
2023-07-02T06:51:08.283Z,13.40
2023-07-02T06:53:35.396Z,12.13
2023-07-02T06:56:02.096Z,12.60
2023-07-02T06:58:28.797Z,13.30
2023-07-02T07:00:57.973Z,13.13
2023-07-02T07:03:25.277Z,14.07
2023-07-02T07:05:51.925Z,14.17
2023-07-02T07:08:18.577Z,14.33
2023-07-02T07:10:46.733Z,14.27
2023-07-02T07:13:13.936Z,13.73
2023-07-02T07:15:40.644Z,13.67
2023-07-02T07:18:10.155Z,12.17
2023-07-02T07:20:37.271Z,12.43
2023-07-02T07:23:04.739Z,13.57
2023-07-02T07:25:31.572Z,12.20
2023-07-02T07:28:00.685Z,12.97
2023-07-02T07:30:27.379Z,10.80
2023-07-02T07:32:54.566Z,9.67
2023-07-02T07:35:23.065Z,10.17
2023-07-02T07:37:50.811Z,9.70
2023-07-02T07:40:17.757Z,9.30
2023-07-02T07:42:44.576Z,10.00
2023-07-02T07:45:12.648Z,9.50
2023-07-02T07:47:50.383Z,9.80
2023-07-02T07:50:17.213Z,9.93
2023-07-02T07:52:44.438Z,9.60
2023-07-02T07:55:11.226Z,9.57
2023-07-02T07:57:38.735Z,10.30
2023-07-02T08:00:09.273Z,9.97
2023-07-02T08:02:36.062Z,8.70
2023-07-02T08:05:04.327Z,8.43
2023-07-02T08:07:32.917Z,7.97
2023-07-02T08:10:00.250Z,9.30
2023-07-02T08:12:30.734Z,8.73
2023-07-02T08:14:57.876Z,8.70
2023-07-02T08:17:24.659Z,7.50
2023-07-02T08:19:51.436Z,8.57
2023-07-02T08:22:18.153Z,7.30
2023-07-02T08:24:44.870Z,8.90
2023-07-02T08:27:15.040Z,8.13
2023-07-02T08:29:42.088Z,8.87
2023-07-02T08:32:09.014Z,8.87
2023-07-02T08:34:35.741Z,8.50
2023-07-02T08:37:02.506Z,7.30
2023-07-02T08:39:29.251Z,7.00
2023-07-02T08:41:56.064Z,7.70
2023-07-02T08:44:23.598Z,6.70
2023-07-02T08:46:52.206Z,8.50
2023-07-02T08:49:19.354Z,6.83
2023-07-02T08:51:47.328Z,6.73
2023-07-02T08:54:15.510Z,7.00
2023-07-02T08:56:43.086Z,7.60
2023-07-02T08:59:12.033Z,7.83
2023-07-02T09:01:53.316Z,7.87
2023-07-02T09:04:20.676Z,7.80
2023-07-02T09:06:52.445Z,8.43
2023-07-02T09:09:19.361Z,8.43
2023-07-02T09:11:52.262Z,7.97
2023-07-02T09:14:29.728Z,8.00
2023-07-02T09:17:10.583Z,7.77
2023-07-02T09:19:38.090Z,8.10
2023-07-02T09:22:07.020Z,8.57
2023-07-02T09:24:33.734Z,7.90
2023-07-02T09:27:02.052Z,7.77
2023-07-02T09:29:31.005Z,8.30
2023-07-02T09:32:10.281Z,7.47
2023-07-02T09:34:40.005Z,9.03
2023-07-02T09:37:07.091Z,7.97
2023-07-02T09:39:35.857Z,8.00
2023-07-02T09:42:06.396Z,8.63
2023-07-02T09:44:36.756Z,8.90
2023-07-02T09:47:08.467Z,8.30
2023-07-02T09:49:40.199Z,8.60
2023-07-02T09:52:10.125Z,8.13
2023-07-02T09:54:37.806Z,8.40
2023-07-02T09:57:05.447Z,8.17
2023-07-02T09:59:32.109Z,7.07
2023-07-02T10:01:59.497Z,7.07
2023-07-02T10:04:26.640Z,7.37
2023-07-02T10:06:58.596Z,7.40
2023-07-02T10:09:43.170Z,6.93
2023-07-02T10:12:26.884Z,7.10
2023-07-02T10:14:56.750Z,7.17
2023-07-02T10:17:33.029Z,6.77
2023-07-02T10:20:02.032Z,7.03
2023-07-02T10:22:29.194Z,7.40
2023-07-02T10:25:01.944Z,7.37
2023-07-02T10:27:42.648Z,7.90
2023-07-02T10:30:11.057Z,7.37
2023-07-02T10:32:41.957Z,7.63
2023-07-02T10:35:18.979Z,7.63
2023-07-02T10:37:46.453Z,7.70
2023-07-02T10:40:13.856Z,7.60
2023-07-02T10:42:48.227Z,7.80
2023-07-02T10:45:15.299Z,7.20
2023-07-02T10:47:44.345Z,7.17
2023-07-02T10:50:17.357Z,7.40
2023-07-02T10:52:47.612Z,7.40
2023-07-02T10:55:21.423Z,7.40
2023-07-02T10:57:52.755Z,7.00
2023-07-02T11:00:19.949Z,7.30
2023-07-02T11:02:46.884Z,6.70
2023-07-02T11:05:14.114Z,6.87
2023-07-02T11:07:43.825Z,6.60
2023-07-02T11:10:13.039Z,6.70
2023-07-02T11:12:39.938Z,6.20
2023-07-02T11:15:10.431Z,7.07
2023-07-02T11:17:37.387Z,6.17
2023-07-02T11:20:06.564Z,7.10
2023-07-02T11:22:38.803Z,7.17
2023-07-02T11:25:21.262Z,7.27
2023-07-02T11:35:53.786Z,6.10
2023-07-02T11:38:20.448Z,6.17
2023-07-02T11:40:49.672Z,6.70
2023-07-02T11:43:17.192Z,6.77
2023-07-02T11:45:44.748Z,6.27
2023-07-02T11:48:11.477Z,5.97
2023-07-02T11:50:38.936Z,7.73
2023-07-02T11:53:06.007Z,6.67
2023-07-02T11:55:32.844Z,6.63
2023-07-02T11:57:59.632Z,7.17
2023-07-02T12:00:27.196Z,6.70
2023-07-02T12:02:54.070Z,7.03
2023-07-02T12:05:23.168Z,7.37
2023-07-02T12:07:49.996Z,6.10
2023-07-02T12:10:16.784Z,6.17
2023-07-02T12:12:43.597Z,6.83
2023-07-02T12:15:13.085Z,7.07
2023-07-02T12:17:39.831Z,7.17
2023-07-02T12:20:07.006Z,6.57
2023-07-02T12:22:33.821Z,6.77
2023-07-02T12:25:00.836Z,7.13
2023-07-02T12:27:28.465Z,6.80
2023-07-02T12:29:55.236Z,7.17
2023-07-02T12:32:22.156Z,6.50
2023-07-02T12:34:49.070Z,6.47
2023-07-02T12:37:19.301Z,6.70
2023-07-02T12:39:46.037Z,6.97
2023-07-02T12:42:12.772Z,7.13
2023-07-02T12:44:39.539Z,7.00
2023-07-02T12:47:06.645Z,6.93
2023-07-02T12:49:33.391Z,6.83
2023-07-02T12:52:00.153Z,7.67
2023-07-02T12:54:27.811Z,8.40
2023-07-02T12:56:55.002Z,7.77
2023-07-02T12:59:21.795Z,7.20
2023-07-02T13:01:49.268Z,7.63
2023-07-02T13:04:16.691Z,7.50
2023-07-02T13:06:46.036Z,7.70
2023-07-02T13:09:12.873Z,7.93
2023-07-02T13:11:39.712Z,8.63
2023-07-02T13:14:06.475Z,7.93
2023-07-02T13:16:33.211Z,8.43
2023-07-02T13:19:02.815Z,8.47
2023-07-02T13:21:30.168Z,8.07
2023-07-02T13:23:57.091Z,8.33
2023-07-02T13:26:23.882Z,8.43
2023-07-02T13:28:50.673Z,8.13
2023-07-02T13:31:17.699Z,7.80
2023-07-02T13:33:44.575Z,8.00
2023-07-02T13:36:11.798Z,9.27
2023-07-02T13:38:38.672Z,8.80
2023-07-02T13:41:05.426Z,8.90
2023-07-02T13:43:34.085Z,9.47
2023-07-02T13:46:00.929Z,8.50
2023-07-02T13:48:28.910Z,8.67
2023-07-02T13:50:55.887Z,8.53
2023-07-02T13:53:22.640Z,8.33
2023-07-02T13:55:49.788Z,8.60
2023-07-02T13:58:28.165Z,7.97
2023-07-02T14:00:56.533Z,7.37
2023-07-02T14:03:23.436Z,7.80
2023-07-02T14:05:51.848Z,7.87
2023-07-02T14:08:19.016Z,8.73
2023-07-02T14:10:45.841Z,8.33
2023-07-02T14:13:12.716Z,8.53
2023-07-02T14:15:39.497Z,8.10
2023-07-02T14:18:07.066Z,7.80
2023-07-02T14:20:33.852Z,8.63
2023-07-02T14:23:00.669Z,8.93
2023-07-02T14:25:40.730Z,8.70
2023-07-02T14:28:14.125Z,8.67
2023-07-02T14:30:40.937Z,8.70
2023-07-02T14:33:07.841Z,8.77
2023-07-02T14:35:35.770Z,8.70
2023-07-02T14:38:02.562Z,9.80
2023-07-02T14:40:29.504Z,8.83
2023-07-02T14:42:56.296Z,8.60
2023-07-02T14:45:23.025Z,8.30
2023-07-02T14:47:49.782Z,8.63
2023-07-02T14:50:19.364Z,9.07
2023-07-02T14:52:46.506Z,8.97
2023-07-02T14:55:13.444Z,8.73
2023-07-02T14:57:40.170Z,9.30
2023-07-02T15:00:07.670Z,9.20
2023-07-02T15:02:34.480Z,8.90
2023-07-02T15:05:01.561Z,9.17
2023-07-02T15:07:28.305Z,8.47
2023-07-02T15:09:55.049Z,8.67
2023-07-02T15:12:21.759Z,8.20
2023-07-02T15:14:48.508Z,8.50
2023-07-02T15:17:17.877Z,8.73
2023-07-02T15:19:44.673Z,8.43
2023-07-02T15:22:11.383Z,8.37
2023-07-02T15:24:38.137Z,7.93
2023-07-02T15:27:05.263Z,8.53
2023-07-02T15:29:32.007Z,8.53
2023-07-02T15:34:40.700Z,8.57
2023-07-02T15:37:10.572Z,8.00
2023-07-02T15:39:37.408Z,8.27
2023-07-02T15:42:04.480Z,8.53
2023-07-02T15:47:13.816Z,7.93
2023-07-02T15:49:40.697Z,7.87
2023-07-02T15:52:08.373Z,8.40
2023-07-02T15:54:35.229Z,7.27
2023-07-02T15:57:01.887Z,7.47
2023-07-02T15:59:28.673Z,7.20
2023-07-02T16:01:55.301Z,8.87
2023-07-02T16:04:22.318Z,8.43
2023-07-02T16:06:49.625Z,7.67
2023-07-02T16:09:16.656Z,7.93
2023-07-02T16:11:43.489Z,8.43
2023-07-02T16:14:13.017Z,7.20
2023-07-02T16:16:44.523Z,7.10
2023-07-02T16:19:14.144Z,7.80
2023-07-02T16:21:41.801Z,7.30
2023-07-02T16:24:31.152Z,7.07
2023-07-02T16:26:58.772Z,7.23
2023-07-02T16:29:28.436Z,7.37
2023-07-02T16:31:57.158Z,6.57
2023-07-02T16:34:25.053Z,7.73
2023-07-02T16:36:52.417Z,6.90
2023-07-02T16:39:21.887Z,6.60
2023-07-02T16:41:50.214Z,7.00
2023-07-02T16:44:28.406Z,7.10
2023-07-02T16:46:56.667Z,6.93
2023-07-02T16:49:27.923Z,7.30
2023-07-02T16:51:56.119Z,6.53
2023-07-02T16:54:24.619Z,7.00
2023-07-02T16:57:09.496Z,6.73
2023-07-02T16:59:38.851Z,7.00
2023-07-02T17:02:09.111Z,6.37
2023-07-02T17:04:35.861Z,7.63
2023-07-02T17:07:03.090Z,7.20
2023-07-02T17:09:35.744Z,7.07
2023-07-02T17:12:05.160Z,7.80
2023-07-02T17:14:34.783Z,7.20
2023-07-02T17:17:05.709Z,7.80
2023-07-02T17:19:38.183Z,7.00
2023-07-02T17:22:06.859Z,6.97
2023-07-02T17:24:39.570Z,6.57
2023-07-02T17:27:07.902Z,6.10
2023-07-02T17:29:35.001Z,6.70
2023-07-02T17:32:04.815Z,7.63
2023-07-02T17:34:33.384Z,6.97
2023-07-02T17:37:02.581Z,7.00
2023-07-02T17:39:31.438Z,7.90
2023-07-02T17:41:59.424Z,6.50
2023-07-02T17:44:30.073Z,7.10
2023-07-02T17:46:59.879Z,7.03
2023-07-02T17:49:29.467Z,6.87
2023-07-02T17:51:56.364Z,7.17
2023-07-02T17:54:24.003Z,6.63
2023-07-02T17:56:52.624Z,6.13
2023-07-02T17:59:20.969Z,7.00
2023-07-02T18:01:53.457Z,6.93
2023-07-02T18:04:21.816Z,7.00
2023-07-02T18:06:48.625Z,6.67
2023-07-02T18:09:17.652Z,7.50
2023-07-02T18:11:44.438Z,6.83
2023-07-02T18:14:11.153Z,7.30
2023-07-02T18:16:37.929Z,6.90
2023-07-02T18:19:04.692Z,6.80
2023-07-02T18:21:31.381Z,7.17
2023-07-02T18:23:59.643Z,6.57
2023-07-02T18:26:26.472Z,7.17
2023-07-02T18:28:53.271Z,7.17
2023-07-02T18:31:20.709Z,7.00
2023-07-02T18:33:47.587Z,7.03
2023-07-02T18:36:17.624Z,7.13
2023-07-02T18:38:44.344Z,7.07
2023-07-02T18:41:12.496Z,6.73
2023-07-02T18:43:39.579Z,7.23
2023-07-02T18:46:07.966Z,6.83
2023-07-02T18:48:35.963Z,7.10
2023-07-02T18:51:07.331Z,6.53
2023-07-02T18:53:35.434Z,6.50
2023-07-02T18:56:07.176Z,6.37
2023-07-02T18:58:36.817Z,6.73
2023-07-02T19:01:17.911Z,7.10
2023-07-02T19:03:46.781Z,7.10
2023-07-02T19:06:13.757Z,6.60
2023-07-02T19:08:40.597Z,6.80
2023-07-02T19:11:09.083Z,6.80
2023-07-02T19:13:36.233Z,6.90
2023-07-02T19:16:03.133Z,6.90
2023-07-02T19:18:30.964Z,6.53
2023-07-02T19:21:01.488Z,7.03
2023-07-02T19:23:32.396Z,7.17
2023-07-02T19:25:59.295Z,7.47
2023-07-02T19:28:26.089Z,7.03
2023-07-02T19:31:05.342Z,6.70
2023-07-02T19:33:32.222Z,6.70
2023-07-02T19:35:59.112Z,7.10
2023-07-02T19:38:27.064Z,6.50
2023-07-02T19:40:58.160Z,6.67
2023-07-02T19:43:26.135Z,7.63
2023-07-02T19:45:53.150Z,6.73
2023-07-02T19:48:20.806Z,6.53
2023-07-02T19:50:47.590Z,6.93
2023-07-02T19:53:17.397Z,7.00
2023-07-02T19:55:44.963Z,7.10
2023-07-02T19:58:11.781Z,6.83
2023-07-02T20:00:38.504Z,6.73
2023-07-02T20:03:05.361Z,6.67
2023-07-02T20:05:34.153Z,7.17
2023-07-02T20:08:01.601Z,6.17
2023-07-02T20:10:49.911Z,6.27
2023-07-02T20:13:26.513Z,6.83
2023-07-02T20:15:58.004Z,6.20
2023-07-02T20:18:28.462Z,6.23
2023-07-02T20:20:58.337Z,5.87
2023-07-02T20:23:27.661Z,5.43
2023-07-02T20:25:54.682Z,5.80
2023-07-02T20:28:23.877Z,5.60
2023-07-02T20:30:50.607Z,5.40
2023-07-02T20:33:17.425Z,5.70
2023-07-02T20:35:45.215Z,5.43
2023-07-02T20:38:13.907Z,5.60
2023-07-02T20:40:40.746Z,5.47
2023-07-02T20:43:15.623Z,5.40
2023-07-02T20:45:44.927Z,5.13
2023-07-02T20:48:13.574Z,4.70
2023-07-02T20:50:40.234Z,5.20
2023-07-02T20:53:06.977Z,5.60
2023-07-02T20:55:33.781Z,5.57
2023-07-02T20:58:00.619Z,5.30
2023-07-02T21:00:27.470Z,5.00
2023-07-02T21:02:54.630Z,5.33
2023-07-02T21:05:21.491Z,5.20
2023-07-02T21:07:49.976Z,5.83
2023-07-02T21:10:16.938Z,5.93
2023-07-02T21:12:43.735Z,5.23
2023-07-02T21:15:10.843Z,5.67
2023-07-02T21:17:37.636Z,5.70
2023-07-02T21:20:05.444Z,5.70
2023-07-02T21:22:33.334Z,5.37
2023-07-02T21:25:00.299Z,5.53
2023-07-02T21:27:27.059Z,5.63
2023-07-02T21:29:55.184Z,5.27
2023-07-02T21:32:22.218Z,5.50
2023-07-02T21:34:48.980Z,5.60
2023-07-02T21:37:15.832Z,5.47
2023-07-02T21:39:42.957Z,5.50
2023-07-02T21:42:09.714Z,6.17
2023-07-02T21:44:36.410Z,5.23
2023-07-02T21:47:03.183Z,5.97
2023-07-02T21:49:32.005Z,5.70
2023-07-02T21:51:58.758Z,5.77
2023-07-02T21:54:25.752Z,5.87
2023-07-02T21:56:52.484Z,5.63
2023-07-02T21:59:26.688Z,5.77
2023-07-02T22:01:54.447Z,5.57
2023-07-02T22:04:21.610Z,5.67
2023-07-02T22:06:48.420Z,5.47
2023-07-02T22:09:15.135Z,5.53
2023-07-02T22:11:41.852Z,5.60
2023-07-02T22:14:08.524Z,5.63
2023-07-02T22:16:35.216Z,5.90
2023-07-02T22:19:03.499Z,5.40
2023-07-02T22:21:30.245Z,5.83
2023-07-02T22:23:57.299Z,6.20
2023-07-02T22:26:23.961Z,5.80
2023-07-02T22:28:50.755Z,5.57
2023-07-02T22:31:17.563Z,5.23
2023-07-02T22:33:44.468Z,4.90
2023-07-02T22:36:11.338Z,4.90
2023-07-02T22:38:38.052Z,4.90
2023-07-02T22:41:04.769Z,4.47
2023-07-02T22:43:31.552Z,4.00
2023-07-02T22:45:58.241Z,4.50
2023-07-02T22:48:24.895Z,4.20
2023-07-02T22:50:51.601Z,3.67
2023-07-02T22:53:18.272Z,4.70
2023-07-02T22:55:45.089Z,4.10
2023-07-02T22:58:11.968Z,4.13
2023-07-02T23:00:39.355Z,3.50
2023-07-02T23:03:06.251Z,3.67
2023-07-02T23:05:34.033Z,4.13
2023-07-02T23:08:00.825Z,3.60
2023-07-02T23:10:27.532Z,3.57
2023-07-02T23:12:54.239Z,3.50
2023-07-02T23:15:21.509Z,3.80
2023-07-02T23:17:54.056Z,2.90
2023-07-02T23:20:21.419Z,3.63
2023-07-02T23:22:49.778Z,3.83
2023-07-02T23:25:21.779Z,3.23
2023-07-02T23:27:50.341Z,3.40
2023-07-02T23:30:19.273Z,3.30
2023-07-02T23:32:47.693Z,4.10
2023-07-02T23:35:16.254Z,3.30
2023-07-02T23:37:46.512Z,3.60
2023-07-02T23:40:17.501Z,3.67
2023-07-02T23:42:45.494Z,3.93
2023-07-02T23:45:14.369Z,3.90
2023-07-02T23:47:42.318Z,3.60
2023-07-02T23:50:12.079Z,3.90
2023-07-02T23:52:39.478Z,4.17
2023-07-02T23:55:08.541Z,4.13
2023-07-02T23:57:38.662Z,3.80
